Newport, Delaware
Current Conditions -  °F | °C
As of 12:33 PM on Wednesday 26 Nov 2014 (Local Time) from KILG Reporting Station
Heavy Rain Heavy Rain  
Wind Chill: 25°   Ceiling: 800
Heat Index: 34°   Visibility: 2.5mi
Dew Point: 32°   Wind: 12mph
Humidity: 92%   Direction: 20°NNE
Pressure: 29.98"   Gusts: NA
Location:  39.7187°N, 75.6123°W
Report Text: KILG 261733Z 02010KT 2 1/2SM +RA BR BKN008 OVC035 01/00 A2998 RMK AO2 RAB1657SNE1657 P0011 T00110000
Loading
Personal Weather Stations






























Interactive Weather Map New forecast layout! Learn more

10-Day Weather Forecast

Advertisements
Track Severe Weather on mobile